Time;durP1;ratioP1;P1;durP2;ratioP2;P2;SDS_P1;SDS_P2;PMS_P1;PMS_P2;Temp;Humidity;BMP_temperature;BMP_pressure;BME280_temperature;BME280_humidity;BME280_pressure;Samples;Min_cycle;Max_cycle;Signal;HPM_P1;HPM_P2
2020/12/22 00:00:21;;;;;;;108.73;60.13;;;;;;;1.99;76.23;99579.43;2194135;81;21451;-80
2020/12/22 00:03:24;;;;;;;112.90;56.23;;;;;;;1.95;76.23;99572.33;2195416;80;21463;-81
2020/12/22 00:06:26;;;;;;;110.43;57.80;;;;;;;1.88;76.16;99568.12;2195490;81;21273;-80
2020/12/22 00:09:27;;;;;;;112.57;59.47;;;;;;;1.85;76.24;99556.36;2195134;81;21281;-80
2020/12/22 00:12:29;;;;;;;118.70;62.80;;;;;;;1.83;76.27;99548.06;2195369;81;21281;-80
2020/12/22 00:15:30;;;;;;;123.53;65.60;;;;;;;1.77;76.34;99551.17;2194977;81;21261;-80
2020/12/22 00:18:31;;;;;;;111.93;61.53;;;;;;;1.74;76.42;99551.00;2195449;81;21261;-79
2020/12/22 00:21:32;;;;;;;125.13;65.53;;;;;;;1.73;76.40;99558.20;2194935;81;21519;-79
2020/12/22 00:24:33;;;;;;;111.27;56.97;;;;;;;1.70;76.46;99549.41;2195621;81;21285;-80
2020/12/22 00:27:38;;;;;;;123.43;65.73;;;;;;;1.65;76.52;99541.42;2195697;81;21118;-80
2020/12/22 00:30:39;;;;;;;122.33;63.60;;;;;;;1.64;76.59;99551.23;2195755;81;21285;-80
2020/12/22 00:33:40;;;;;;;126.37;65.23;;;;;;;1.66;76.61;99544.88;2195370;81;21555;-79
2020/12/22 00:36:41;;;;;;;120.90;64.20;;;;;;;1.69;76.60;99545.06;2195989;81;21292;-80
2020/12/22 00:39:44;;;;;;;124.70;66.43;;;;;;;1.66;76.67;99540.62;2195131;81;21111;-79
2020/12/22 00:42:45;;;;;;;122.30;63.73;;;;;;;1.71;76.72;99544.75;2195089;81;21107;-79
2020/12/22 00:45:46;;;;;;;129.53;67.90;;;;;;;1.69;76.72;99545.95;2195356;81;21265;-79
2020/12/22 00:48:47;;;;;;;119.73;62.50;;;;;;;1.65;76.68;99539.25;2195663;81;21154;-79
2020/12/22 00:51:48;;;;;;;122.23;66.50;;;;;;;1.68;76.76;99542.89;2193874;81;21125;-80
2020/12/22 00:54:50;;;;;;;121.23;67.00;;;;;;;1.73;76.74;99546.61;2194590;81;21563;-77
2020/12/22 00:57:51;;;;;;;128.10;64.03;;;;;;;1.75;76.68;99542.48;2194617;81;21138;-81
2020/12/22 01:00:52;;;;;;;125.47;69.03;;;;;;;1.78;76.66;99541.77;2194383;81;21564;-82
2020/12/22 01:03:53;;;;;;;137.40;73.43;;;;;;;1.75;76.67;99533.87;2193975;81;21151;-80
2020/12/22 01:06:54;;;;;;;128.57;68.43;;;;;;;1.77;76.72;99529.70;2193719;81;21134;-80
2020/12/22 01:09:55;;;;;;;120.17;65.37;;;;;;;1.78;76.64;99532.36;2194260;81;21249;-80
2020/12/22 01:12:56;;;;;;;120.50;63.80;;;;;;;1.76;76.61;99523.66;2180567;81;21149;-81
2020/12/22 01:15:57;;;;;;;127.17;68.70;;;;;;;1.76;76.63;99523.66;2174175;82;21122;-79
2020/12/22 01:18:58;;;;;;;126.57;66.30;;;;;;;1.74;76.59;99516.25;2174355;82;21150;-80
2020/12/22 01:21:59;;;;;;;128.10;71.43;;;;;;;1.74;76.60;99502.09;2174698;82;21705;-80
2020/12/22 01:25:00;;;;;;;129.03;69.77;;;;;;;1.70;76.61;99493.67;2173980;82;21106;-80
2020/12/22 01:28:01;;;;;;;132.80;69.23;;;;;;;1.67;76.55;99494.79;2174259;82;21407;-79
2020/12/22 01:31:02;;;;;;;128.23;68.00;;;;;;;1.66;76.54;99501.14;2174154;82;21137;-81
2020/12/22 01:34:03;;;;;;;135.33;68.73;;;;;;;1.66;76.59;99486.98;2174162;82;21227;-79
2020/12/22 01:37:05;;;;;;;123.87;67.53;;;;;;;1.58;76.47;99477.54;2174188;82;21134;-80
2020/12/22 01:40:06;;;;;;;123.27;66.13;;;;;;;1.53;76.60;99478.97;2175552;82;21150;-80
2020/12/22 01:43:07;;;;;;;127.47;67.13;;;;;;;1.52;76.70;99474.62;2174810;82;21264;-80
2020/12/22 01:46:08;;;;;;;131.93;72.27;;;;;;;1.42;76.62;99473.60;2175296;82;21118;-79
2020/12/22 01:49:09;;;;;;;124.97;67.53;;;;;;;1.38;76.77;99478.09;2175411;82;21141;-80
2020/12/22 01:52:10;;;;;;;133.90;66.73;;;;;;;1.37;76.94;99475.02;2175382;82;21419;-79
2020/12/22 01:55:11;;;;;;;122.80;67.07;;;;;;;1.36;76.93;99478.39;2175343;82;21406;-80
2020/12/22 01:58:12;;;;;;;130.67;69.73;;;;;;;1.34;76.91;99479.59;2175900;82;21141;-80
2020/12/22 02:01:13;;;;;;;123.47;65.97;;;;;;;1.35;76.87;99476.22;2175768;82;21141;-80
2020/12/22 02:04:14;;;;;;;138.03;71.73;;;;;;;1.31;77.02;99466.55;2175077;82;21567;-80
2020/12/22 02:07:16;;;;;;;115.77;64.30;;;;;;;1.28;77.03;99462.52;2175198;82;21196;-80
2020/12/22 02:10:17;;;;;;;126.37;69.47;;;;;;;1.28;77.17;99458.27;2175554;82;21126;-80
2020/12/22 02:13:18;;;;;;;123.10;66.87;;;;;;;1.23;77.08;99457.11;2191245;81;21178;-80
2020/12/22 02:16:19;;;;;;;138.30;71.67;;;;;;;1.23;77.17;99451.08;2198722;81;21146;-80
2020/12/22 02:19:20;;;;;;;134.67;68.77;;;;;;;1.27;77.26;99446.59;2198835;81;21091;-80
2020/12/22 02:22:21;;;;;;;132.63;69.57;;;;;;;1.30;77.11;99447.17;2198810;81;21145;-80
2020/12/22 02:25:24;;;;;;;128.33;68.20;;;;;;;1.30;77.12;99439.06;2198616;81;21142;-79
2020/12/22 02:28:25;;;;;;;124.47;66.03;;;;;;;1.35;77.11;99445.75;2198676;81;21118;-79
2020/12/22 02:31:26;;;;;;;123.10;64.70;;;;;;;1.35;77.04;99453.47;2198300;81;21143;-79
2020/12/22 02:34:27;;;;;;;133.17;66.47;;;;;;;1.34;77.06;99461.98;2197641;81;21194;-79
2020/12/22 02:37:28;;;;;;;130.30;67.60;;;;;;;1.39;77.03;99458.88;2198056;81;21142;-79
2020/12/22 02:40:30;;;;;;;126.37;65.63;;;;;;;1.45;76.91;99453.20;2198582;81;21154;-81
2020/12/22 02:43:31;;;;;;;128.30;67.93;;;;;;;1.45;76.73;99443.80;2197773;81;21150;-79
2020/12/22 02:46:32;;;;;;;126.17;67.77;;;;;;;1.46;76.77;99442.11;2198076;81;21150;-80
2020/12/22 02:49:33;;;;;;;111.53;61.80;;;;;;;1.47;76.68;99427.16;2197805;81;21119;-81
2020/12/22 02:52:34;;;;;;;116.00;60.10;;;;;;;1.42;76.55;99421.75;2197816;81;21130;-79
2020/12/22 02:55:35;;;;;;;115.60;60.87;;;;;;;1.36;76.59;99423.09;2197736;81;21099;-79
2020/12/22 02:58:36;;;;;;;118.47;65.47;;;;;;;1.32;76.63;99412.14;2197775;81;21099;-79
2020/12/22 03:01:37;;;;;;;101.70;54.87;;;;;;;3.97;88.81;99397.26;2197715;81;21364;-79
2020/12/22 03:04:38;;;;;;;99.53;54.13;;;;;;;7.57;80.80;99387.91;2197379;81;21411;-79
2020/12/22 03:07:39;;;;;;;99.77;57.03;;;;;;;6.29;69.45;99382.13;2197112;81;21096;-79
2020/12/22 03:10:40;;;;;;;100.57;55.17;;;;;;;4.88;69.36;99375.94;2197822;81;21130;-78
2020/12/22 03:13:41;;;;;;;98.43;55.90;;;;;;;3.84;69.48;99372.56;2180979;81;21177;-78
2020/12/22 03:16:42;;;;;;;98.80;56.47;;;;;;;3.06;70.65;99369.18;2174849;82;21450;-78
2020/12/22 03:19:43;;;;;;;98.23;55.80;;;;;;;2.59;71.62;99368.45;2174006;82;21126;-77
2020/12/22 03:22:45;;;;;;;97.63;55.17;;;;;;;2.27;72.29;99368.06;2173734;82;21479;-77
2020/12/22 03:25:46;;;;;;;89.70;50.37;;;;;;;2.02;72.85;99354.30;2173816;82;21141;-78
2020/12/22 03:28:47;;;;;;;98.47;54.57;;;;;;;1.80;73.46;99344.13;2174541;82;21166;-78
2020/12/22 03:31:48;;;;;;;98.60;54.57;;;;;;;1.60;73.71;99347.28;2174954;82;21340;-79
2020/12/22 03:34:49;;;;;;;99.47;55.50;;;;;;;1.44;74.17;99355.84;2174888;82;21142;-78
2020/12/22 03:37:50;;;;;;;96.07;51.73;;;;;;;1.38;74.41;99342.64;2175010;82;21489;-77
2020/12/22 03:40:51;;;;;;;99.27;56.20;;;;;;;1.37;74.76;99356.70;2174974;82;21130;-77
2020/12/22 03:43:53;;;;;;;104.73;55.47;;;;;;;1.33;74.79;99362.47;2175207;82;21146;-78
2020/12/22 03:47:01;;;;;;;98.23;55.63;;;;;;;1.29;75.04;99348.55;2174910;82;21129;-77
2020/12/22 03:50:02;;;;;;;92.63;47.83;;;;;;;1.25;75.23;99341.47;2175116;82;21400;-78
2020/12/22 03:53:06;;;;;;;92.30;49.70;;;;;;;3.72;78.43;99334.55;2175081;82;21186;-79
2020/12/22 03:56:07;;;;;;;94.35;52.33;;;;;;;3.40;73.25;99338.16;2175204;82;21110;-79
2020/12/22 03:59:08;;;;;;;97.07;53.23;;;;;;;2.86;72.52;99331.20;2174974;82;21158;-77
2020/12/22 04:02:09;;;;;;;99.27;53.30;;;;;;;2.44;72.58;99335.05;2174986;82;22214;-78
2020/12/22 04:05:10;;;;;;;95.17;54.40;;;;;;;2.11;72.82;99337.64;2174982;82;21150;-78
2020/12/22 04:08:12;;;;;;;95.17;53.10;;;;;;;1.92;73.21;99331.03;2174953;82;21142;-79
2020/12/22 04:11:13;;;;;;;93.13;52.10;;;;;;;1.67;73.34;99322.37;2175100;82;21460;-79
2020/12/22 04:14:15;;;;;;;94.43;52.93;;;;;;;1.46;73.72;99318.62;2176965;81;21169;-79
2020/12/22 04:17:16;;;;;;;102.10;52.33;;;;;;;1.33;73.99;99316.17;2177745;82;21181;-79
2020/12/22 04:20:17;;;;;;;94.47;49.70;;;;;;;1.22;74.30;99302.72;2177354;82;21130;-79
2020/12/22 04:23:18;;;;;;;100.50;52.83;;;;;;;1.10;74.67;99296.50;2177189;82;21125;-78
2020/12/22 04:26:19;;;;;;;95.70;50.50;;;;;;;1.04;74.90;99309.41;2177218;81;21158;-78
2020/12/22 04:29:21;;;;;;;83.47;44.97;;;;;;;0.94;75.05;99314.43;2177446;82;21162;-78
2020/12/22 04:32:22;;;;;;;92.77;52.37;;;;;;;0.90;75.36;99311.20;2177093;82;21126;-78
2020/12/22 04:35:23;;;;;;;92.77;51.87;;;;;;;0.88;75.52;99289.66;2176958;82;21447;-78
2020/12/22 04:38:24;;;;;;;93.83;51.20;;;;;;;0.88;75.64;99285.81;2176946;82;21102;-78
2020/12/22 04:41:25;;;;;;;94.33;51.17;;;;;;;0.86;75.76;99284.41;2176896;82;21133;-78
2020/12/22 04:44:26;;;;;;;97.03;53.67;;;;;;;0.87;75.88;99280.19;2176624;82;21192;-77
2020/12/22 04:47:27;;;;;;;95.83;50.97;;;;;;;0.87;76.07;99282.75;2176032;81;21462;-78
2020/12/22 04:50:28;;;;;;;96.50;51.50;;;;;;;0.87;76.04;99278.50;2175732;82;21466;-79
2020/12/22 04:53:30;;;;;;;91.20;49.17;;;;;;;0.88;75.94;99276.81;2175748;81;21918;-79
2020/12/22 04:56:31;;;;;;;98.43;51.80;;;;;;;0.83;75.95;99269.21;2175856;82;21141;-80
2020/12/22 04:59:32;;;;;;;93.87;50.07;;;;;;;0.75;76.05;99270.06;2176206;82;21455;-79
2020/12/22 05:02:33;;;;;;;98.17;50.20;;;;;;;0.72;76.20;99262.58;2175742;82;21125;-80
2020/12/22 05:05:34;;;;;;;86.50;43.90;;;;;;;0.66;76.26;99265.69;2176576;82;21110;-79
2020/12/22 05:08:35;;;;;;;96.10;49.93;;;;;;;0.66;76.49;99264.40;2177174;82;21208;-79
2020/12/22 05:11:36;;;;;;;95.67;50.30;;;;;;;0.66;76.42;99255.80;2176726;82;21122;-79
2020/12/22 05:14:37;;;;;;;91.43;47.47;;;;;;;0.62;76.48;99259.48;2176190;81;21602;-79
2020/12/22 05:17:39;;;;;;;99.00;51.00;;;;;;;0.58;76.62;99252.80;2176401;82;21171;-78
2020/12/22 05:20:41;;;;;;;92.13;46.53;;;;;;;0.55;76.74;99246.20;2176167;82;21137;-77
2020/12/22 05:23:42;;;;;;;96.00;51.10;;;;;;;0.51;76.78;99237.44;2176632;82;21097;-79
2020/12/22 05:26:43;;;;;;;86.83;46.53;;;;;;;0.51;76.79;99242.97;2175408;82;21236;-77
2020/12/22 05:29:44;;;;;;;98.73;50.27;;;;;;;0.48;76.96;99238.95;2175235;82;21265;-78
2020/12/22 05:32:45;;;;;;;93.00;49.00;;;;;;;0.47;77.07;99252.19;2175901;82;21236;-78
2020/12/22 05:35:46;;;;;;;92.10;46.83;;;;;;;0.51;77.04;99259.27;2176043;82;21162;-77
2020/12/22 05:38:47;;;;;;;87.80;46.70;;;;;;;3.51;84.38;99238.05;2175990;82;21471;-76
2020/12/22 05:41:48;;;;;;;91.63;48.07;;;;;;;3.58;74.20;99234.93;2175915;82;21122;-77
2020/12/22 05:44:49;;;;;;;89.63;49.50;;;;;;;2.80;72.91;99226.48;2175380;82;21232;-78
2020/12/22 05:47:50;;;;;;;92.13;48.27;;;;;;;2.23;73.08;99232.67;2175433;82;21577;-78
2020/12/22 05:50:52;;;;;;;95.20;48.70;;;;;;;1.88;73.52;99218.00;2175826;81;21110;-77
2020/12/22 05:53:53;;;;;;;87.17;47.73;;;;;;;1.67;73.99;99215.56;2176297;81;21292;-79
2020/12/22 05:56:54;;;;;;;97.07;53.27;;;;;;;1.51;74.20;99219.02;2176200;82;21134;-78
2020/12/22 05:59:55;;;;;;;95.07;49.00;;;;;;;1.42;74.55;99209.53;2176178;82;21129;-78
2020/12/22 06:02:56;;;;;;;92.23;48.63;;;;;;;1.28;74.65;99206.63;2176014;82;21118;-77
2020/12/22 06:05:57;;;;;;;87.57;44.60;;;;;;;1.15;75.00;99198.64;2175147;82;21291;-78
2020/12/22 06:08:58;;;;;;;87.47;45.57;;;;;;;1.02;75.23;99198.78;2175900;82;21129;-78
2020/12/22 06:11:59;;;;;;;95.37;48.00;;;;;;;0.95;75.42;99194.99;2176284;82;21427;-77
2020/12/22 06:15:01;;;;;;;90.43;46.93;;;;;;;0.91;75.57;99192.17;2173020;81;21704;-79
2020/12/22 06:18:02;;;;;;;92.70;47.63;;;;;;;0.83;75.76;99185.69;2171723;82;21249;-79
2020/12/22 06:21:03;;;;;;;89.77;46.07;;;;;;;0.81;75.86;99178.30;2172822;82;21241;-77
2020/12/22 06:24:04;;;;;;;82.27;44.20;;;;;;;0.81;76.07;99179.58;2172578;82;21265;-79
2020/12/22 06:27:05;;;;;;;86.90;46.93;;;;;;;0.85;76.08;99164.81;2172724;82;21236;-78
2020/12/22 06:30:06;;;;;;;120.30;63.13;;;;;;;0.87;76.10;99162.84;2172104;82;21222;-77
2020/12/22 06:33:07;;;;;;;111.73;58.37;;;;;;;0.92;76.08;99160.53;2172036;82;21954;-77
2020/12/22 06:36:08;;;;;;;95.70;47.93;;;;;;;0.97;76.11;99156.92;2172626;82;21256;-78
2020/12/22 06:39:09;;;;;;;89.90;45.43;;;;;;;1.02;76.13;99156.37;2173500;82;21265;-77
2020/12/22 06:42:11;;;;;;;86.93;46.13;;;;;;;1.07;76.23;99153.64;2172767;82;21272;-77
2020/12/22 06:45:12;;;;;;;88.47;45.23;;;;;;;1.11;76.00;99141.44;2171772;82;21272;-78
2020/12/22 06:48:13;;;;;;;85.50;44.73;;;;;;;1.13;75.92;99135.97;2171614;82;21283;-78
2020/12/22 06:51:14;;;;;;;87.50;47.07;;;;;;;1.13;75.91;99124.41;2171702;82;21352;-78
2020/12/22 06:54:15;;;;;;;95.97;47.63;;;;;;;1.17;76.03;99128.02;2171719;82;21178;-78
2020/12/22 06:57:16;;;;;;;87.00;45.10;;;;;;;1.21;75.94;99131.23;2172069;82;21272;-78
2020/12/22 07:00:17;;;;;;;87.47;45.87;;;;;;;1.21;75.89;99122.23;2171463;82;21272;-77
2020/12/22 07:03:18;;;;;;;84.13;45.50;;;;;;;1.23;75.89;99116.37;2171135;82;21134;-77
2020/12/22 07:06:21;;;;;;;89.13;47.50;;;;;;;1.33;75.85;99127.14;2171198;82;21771;-77
2020/12/22 07:09:22;;;;;;;78.10;41.50;;;;;;;1.36;75.80;99126.02;2172350;82;21126;-78
2020/12/22 07:12:23;;;;;;;97.47;51.77;;;;;;;1.39;75.75;99118.45;2171273;82;21277;-77
2020/12/22 07:15:24;;;;;;;85.43;46.43;;;;;;;1.37;75.80;99121.35;2173564;81;21189;-78
2020/12/22 07:18:25;;;;;;;79.43;41.80;;;;;;;1.40;75.77;99116.36;2174133;82;21260;-77
2020/12/22 07:21:26;;;;;;;79.53;43.73;;;;;;;1.41;75.80;99112.59;2173367;82;21862;-77
2020/12/22 07:24:27;;;;;;;74.67;40.57;;;;;;;1.38;75.66;99107.69;2174627;82;21269;-78
2020/12/22 07:27:28;;;;;;;82.33;42.37;;;;;;;1.37;75.86;99104.63;2175709;82;21288;-78
2020/12/22 07:30:30;;;;;;;79.80;43.13;;;;;;;1.40;75.90;99107.36;2175007;82;21590;-76
2020/12/22 07:33:31;;;;;;;78.63;42.57;;;;;;;1.41;75.68;99105.27;2174064;82;21300;-78
2020/12/22 07:36:32;;;;;;;82.43;43.17;;;;;;;1.43;75.77;99102.37;2174806;82;21150;-79
2020/12/22 07:39:33;;;;;;;81.13;43.20;;;;;;;1.51;75.70;99101.08;2174812;82;21240;-78
2020/12/22 07:42:34;;;;;;;81.07;43.23;;;;;;;1.63;75.67;99092.70;2175250;82;21257;-78
2020/12/22 07:45:35;;;;;;;76.50;42.73;;;;;;;1.75;75.43;99089.89;2175913;82;21106;-78
2020/12/22 07:48:36;;;;;;;79.07;42.77;;;;;;;1.85;75.34;99086.56;2175171;82;21411;-77
2020/12/22 07:51:38;;;;;;;80.30;42.97;;;;;;;1.96;75.17;99081.06;2174485;82;21236;-77
2020/12/22 07:54:39;;;;;;;73.17;39.87;;;;;;;2.04;75.02;99078.05;2174672;82;21759;-77
2020/12/22 07:57:40;;;;;;;73.40;41.50;;;;;;;2.15;74.74;99073.02;2175039;82;21292;-77
2020/12/22 08:00:41;;;;;;;78.70;46.80;;;;;;;2.23;74.62;99074.27;2174847;81;21118;-77
2020/12/22 08:03:42;;;;;;;77.60;43.23;;;;;;;2.31;74.53;99068.20;2175456;82;21369;-78
2020/12/22 08:06:43;;;;;;;73.07;42.03;;;;;;;2.39;74.45;99063.41;2174840;82;21199;-79
2020/12/22 08:09:44;;;;;;;77.60;43.27;;;;;;;2.44;74.20;99061.94;2175411;82;21936;-78
2020/12/22 08:12:45;;;;;;;72.40;42.17;;;;;;;2.43;74.17;99057.19;2175450;82;21243;-78
2020/12/22 08:15:46;;;;;;;68.47;38.57;;;;;;;2.47;74.20;99054.34;2175261;81;21312;-78
2020/12/22 08:18:47;;;;;;;69.57;37.40;;;;;;;2.48;74.15;99049.67;2174795;82;21810;-76
2020/12/22 08:21:48;;;;;;;69.07;37.97;;;;;;;2.48;74.04;99047.09;2175278;82;21237;-77
2020/12/22 08:24:50;;;;;;;70.30;34.67;;;;;;;2.49;74.18;99046.28;2175479;82;21675;-77
2020/12/22 08:27:51;;;;;;;63.30;36.73;;;;;;;2.53;74.17;99048.19;2176247;82;21118;-77
2020/12/22 08:30:52;;;;;;;60.73;35.47;;;;;;;2.53;73.90;99043.92;2176474;82;21125;-78
2020/12/22 08:33:53;;;;;;;61.90;35.93;;;;;;;2.52;74.07;99035.71;2175706;82;21169;-77
2020/12/22 08:36:55;;;;;;;57.17;33.03;;;;;;;2.54;74.00;99034.09;2175216;81;21118;-77
2020/12/22 08:39:56;;;;;;;62.80;34.17;;;;;;;2.55;73.94;99023.38;2176170;82;21407;-78
2020/12/22 08:42:57;;;;;;;59.43;33.23;;;;;;;2.56;73.71;99019.98;2176128;82;21149;-78
2020/12/22 08:45:58;;;;;;;60.73;34.70;;;;;;;2.54;73.74;99023.78;2175176;82;21457;-78
2020/12/22 08:48:59;;;;;;;62.67;38.00;;;;;;;2.54;73.95;99014.77;2175134;82;21121;-78
2020/12/22 08:52:00;;;;;;;214.43;126.33;;;;;;;2.59;74.02;99014.97;2175361;82;21233;-77
2020/12/22 08:55:01;;;;;;;184.57;113.50;;;;;;;4.08;86.29;99005.08;2175356;82;21165;-79
2020/12/22 08:58:02;;;;;;;96.00;57.13;;;;;;;7.47;83.43;98992.34;2176761;81;21276;-79
2020/12/22 09:01:04;;;;;;;54.63;34.47;;;;;;;9.12;70.47;98981.93;2175747;82;21376;-80
2020/12/22 09:04:05;;;;;;;59.80;34.40;;;;;;;7.56;64.32;98983.48;2175250;82;21315;-79
2020/12/22 09:07:06;;;;;;;52.63;33.30;;;;;;;6.09;65.43;98987.84;2174568;82;21451;-79
2020/12/22 09:10:07;;;;;;;46.97;31.70;;;;;;;5.20;66.37;98990.41;2175939;82;21240;-80
2020/12/22 09:13:08;;;;;;;55.60;32.87;;;;;;;4.58;67.41;98981.63;2175930;82;21237;-80
2020/12/22 09:16:09;;;;;;;269.33;171.70;;;;;;;4.19;68.22;98971.92;2172552;82;21586;-79
2020/12/22 09:19:10;;;;;;;77.87;47.63;;;;;;;7.15;82.16;98962.03;2172420;82;21240;-78
2020/12/22 09:22:11;;;;;;;65.43;38.27;;;;;;;8.14;66.19;98953.75;2172090;82;21232;-80
2020/12/22 09:25:12;;;;;;;63.07;37.20;;;;;;;6.75;64.02;98953.11;2172761;82;21581;-77
2020/12/22 09:28:13;;;;;;;68.47;40.13;;;;;;;5.67;64.92;98941.95;2172913;82;21122;-78
2020/12/22 09:31:14;;;;;;;52.93;32.63;;;;;;;5.00;65.82;98942.22;2172444;82;21253;-79
2020/12/22 09:34:15;;;;;;;53.30;32.43;;;;;;;4.55;66.65;98937.57;2172363;82;21154;-78
2020/12/22 09:37:17;;;;;;;54.80;32.40;;;;;;;4.23;67.52;98939.80;2172194;82;21114;-78
2020/12/22 09:40:18;;;;;;;56.43;33.23;;;;;;;3.97;68.20;98929.75;2171356;82;21581;-78
2020/12/22 09:43:19;;;;;;;58.70;32.50;;;;;;;3.80;68.96;98917.47;2173645;82;21086;-79
2020/12/22 09:46:20;;;;;;;52.77;32.30;;;;;;;3.63;69.45;98914.63;2173551;82;21253;-80
2020/12/22 09:49:21;;;;;;;57.23;34.47;;;;;;;3.50;70.17;98911.97;2173891;82;21125;-80
2020/12/22 09:52:22;;;;;;;58.53;33.47;;;;;;;3.39;70.72;98917.48;2173585;82;21116;-80
2020/12/22 09:55:24;;;;;;;52.03;31.57;;;;;;;3.35;71.03;98903.57;2172614;82;21177;-79
2020/12/22 09:58:25;;;;;;;52.50;32.40;;;;;;;3.31;71.56;98900.39;2173670;82;21265;-78
2020/12/22 10:01:26;;;;;;;53.60;31.97;;;;;;;3.29;71.61;98905.90;2172977;82;21216;-80
2020/12/22 10:04:27;;;;;;;49.20;30.17;;;;;;;3.24;71.79;98895.80;2173542;82;21853;-80
2020/12/22 10:07:29;;;;;;;49.57;31.20;;;;;;;3.20;72.22;98890.92;2173254;82;21256;-80
2020/12/22 10:10:30;;;;;;;53.67;32.20;;;;;;;3.16;72.40;98885.16;2173270;82;21130;-78
2020/12/22 10:13:31;;;;;;;48.50;30.03;;;;;;;3.14;72.75;98879.47;2172670;81;21277;-79
2020/12/22 10:16:33;;;;;;;49.87;29.47;;;;;;;3.13;72.81;98879.00;2172783;82;21122;-80
2020/12/22 10:19:34;;;;;;;46.07;27.93;;;;;;;3.11;72.92;98875.06;2172669;82;21236;-79
2020/12/22 10:22:35;;;;;;;50.77;30.47;;;;;;;3.12;73.12;98866.92;2173489;82;21115;-79
2020/12/22 10:25:36;;;;;;;51.20;29.27;;;;;;;3.07;73.18;98878.75;2174320;82;21145;-80
2020/12/22 10:28:37;;;;;;;47.57;28.97;;;;;;;3.03;73.61;98862.67;2173695;82;21122;-80
2020/12/22 10:31:38;;;;;;;49.00;29.03;;;;;;;3.01;73.64;98869.46;2173634;82;21122;-80
2020/12/22 10:34:39;;;;;;;51.80;31.43;;;;;;;2.96;73.92;98864.12;2173609;82;21281;-79
2020/12/22 10:37:40;;;;;;;54.97;31.57;;;;;;;2.91;74.19;98855.31;2174696;82;21141;-81
2020/12/22 10:40:41;;;;;;;50.27;29.20;;;;;;;2.91;74.29;98847.57;2173878;82;21122;-79
2020/12/22 10:43:42;;;;;;;50.27;27.77;;;;;;;2.90;74.38;98843.23;2172896;82;21114;-79
2020/12/22 10:46:44;;;;;;;52.30;28.50;;;;;;;2.90;74.75;98839.77;2172659;82;21127;-80
2020/12/22 10:49:45;;;;;;;48.07;29.43;;;;;;;2.87;74.59;98841.81;2172958;82;21153;-78
2020/12/22 10:52:46;;;;;;;45.33;27.70;;;;;;;2.92;74.86;98840.31;2173042;82;21515;-79
2020/12/22 10:55:48;;;;;;;671.93;517.50;;;;;;;2.93;74.96;98827.01;2173005;82;21178;-80
2020/12/22 10:58:49;;;;;;;228.07;139.17;;;;;;;4.90;87.16;98825.92;2173285;82;21118;-81
2020/12/22 11:01:51;;;;;;;145.20;93.33;;;;;;;8.26;79.70;98804.92;2172649;82;21391;-83
2020/12/22 11:04:54;;;;;;;104.37;65.83;;;;;;;10.52;75.36;98796.50;2172854;82;21245;-81
2020/12/22 11:07:55;;;;;;;152.33;103.43;;;;;;;12.01;68.03;98792.56;2171812;82;21252;-81
2020/12/22 11:10:56;;;;;;;82.53;54.93;;;;;;;12.84;65.21;98794.20;2172577;82;21403;-81
2020/12/22 11:13:57;;;;;;;74.40;49.50;;;;;;;13.11;61.22;98786.41;2173715;81;21901;-83
2020/12/22 11:16:58;;;;;;;82.30;54.03;;;;;;;13.54;61.60;98792.56;2176154;81;21134;-82
2020/12/22 11:20:00;;;;;;;66.50;43.57;;;;;;;13.99;56.66;98783.77;2176553;82;21129;-80
2020/12/22 11:23:01;;;;;;;71.50;47.00;;;;;;;14.15;58.14;98782.40;2175693;82;21114;-83
2020/12/22 11:26:02;;;;;;;49.07;32.77;;;;;;;14.14;55.68;98780.22;2175944;82;21339;-78
2020/12/22 11:29:03;;;;;;;53.55;32.28;;;;;;;14.55;53.99;98767.38;2176016;82;21136;-79
2020/12/22 11:32:04;;;;;;;34.65;24.57;;;;;;;12.35;50.89;98766.14;2174853;82;22005;-77
2020/12/22 11:35:05;;;;;;;41.17;27.53;;;;;;;9.92;52.93;98771.78;2174844;82;21280;-77
2020/12/22 11:38:07;;;;;;;39.80;26.90;;;;;;;8.31;55.93;98776.86;2176315;82;21137;-81
2020/12/22 11:41:09;;;;;;;42.20;27.73;;;;;;;7.13;58.32;98779.41;2176718;82;21122;-79
2020/12/22 11:44:10;;;;;;;60.20;38.50;;;;;;;6.26;60.52;98785.77;2176805;82;21470;-84
2020/12/22 11:47:11;;;;;;;492.30;364.07;;;;;;;6.17;70.28;98784.22;2177794;82;21118;-83
2020/12/22 11:50:12;;;;;;;86.87;58.37;;;;;;;10.11;67.53;98767.25;2177293;82;21113;-82
2020/12/22 11:53:13;;;;;;;133.33;88.60;;;;;;;12.03;62.32;98762.05;2176414;82;21709;-85
2020/12/22 11:56:14;;;;;;;82.57;53.77;;;;;;;12.90;57.87;98757.10;2175984;82;21259;-84
2020/12/22 11:59:15;;;;;;;99.43;65.37;;;;;;;13.59;57.36;98737.04;2176010;82;21090;-82
2020/12/22 12:02:16;;;;;;;93.07;60.20;;;;;;;14.09;54.66;98732.55;2176438;81;21094;-84
2020/12/22 12:05:17;;;;;;;58.05;37.03;;;;;;;14.46;54.09;98735.47;2176606;82;21260;-83
2020/12/22 12:08:19;;;;;;;43.08;28.52;;;;;;;14.95;52.44;98723.36;2176210;82;21219;-81
2020/12/22 12:11:20;;;;;;;45.60;28.20;;;;;;;12.70;48.54;98728.27;2176242;82;21176;-82
2020/12/22 12:14:21;;;;;;;41.57;29.40;;;;;;;10.12;51.18;98733.78;2176638;81;21142;-82
2020/12/22 12:17:22;;;;;;;50.80;29.70;;;;;;;8.46;54.30;98735.99;2172587;82;21138;-82
2020/12/22 12:20:23;;;;;;;42.00;27.67;;;;;;;7.34;56.85;98723.67;2173042;82;21249;-82
2020/12/22 12:23:24;;;;;;;47.73;30.40;;;;;;;6.60;59.15;98723.14;2172566;82;21261;-82
2020/12/22 12:26:26;;;;;;;47.83;32.47;;;;;;;5.98;60.94;98721.02;2172607;82;21245;-82
2020/12/22 12:29:27;;;;;;;50.83;33.03;;;;;;;5.52;62.86;98713.19;2172856;82;21820;-82
2020/12/22 12:32:29;;;;;;;44.40;30.57;;;;;;;5.18;64.50;98708.68;2172450;82;21091;-82
2020/12/22 12:35:30;;;;;;;51.33;32.67;;;;;;;4.89;65.86;98713.36;2172459;82;21269;-81
2020/12/22 12:38:31;;;;;;;50.27;29.77;;;;;;;4.67;66.18;98705.32;2171624;82;21245;-81
2020/12/22 12:41:32;;;;;;;51.57;30.63;;;;;;;4.51;67.16;98696.18;2172576;82;21261;-80
2020/12/22 12:44:34;;;;;;;52.43;30.33;;;;;;;4.43;68.17;98697.22;2173109;82;21244;-81
2020/12/22 12:47:35;;;;;;;45.73;29.97;;;;;;;4.36;68.33;98693.09;2172706;82;21186;-82
2020/12/22 12:50:36;;;;;;;88.93;53.03;;;;;;;4.31;68.75;98703.23;2172624;82;21743;-81
2020/12/22 12:53:37;;;;;;;46.83;29.77;;;;;;;4.25;69.88;98682.77;2172827;82;21346;-82
2020/12/22 12:56:39;;;;;;;49.33;31.87;;;;;;;4.19;69.98;98686.02;2172403;82;21146;-79
2020/12/22 12:59:40;;;;;;;57.77;32.70;;;;;;;4.12;70.22;98691.80;2171999;82;21854;-79
2020/12/22 13:02:41;;;;;;;51.73;31.83;;;;;;;4.06;71.20;98692.47;2171667;82;21288;-80
2020/12/22 13:05:42;;;;;;;45.93;28.83;;;;;;;4.02;70.88;98680.69;2171735;82;21893;-80
2020/12/22 13:08:43;;;;;;;52.90;30.33;;;;;;;4.01;71.52;98675.05;2170677;82;21257;-81
2020/12/22 13:11:44;;;;;;;47.00;27.13;;;;;;;4.00;71.63;98672.01;2171800;82;21285;-80
2020/12/22 13:14:45;;;;;;;42.87;26.97;;;;;;;3.98;71.96;98667.20;2172157;81;21311;-81
2020/12/22 13:17:46;;;;;;;51.87;28.93;;;;;;;3.96;72.05;98662.39;2176075;82;21118;-80
2020/12/22 13:20:48;;;;;;;46.80;28.93;;;;;;;3.94;72.38;98657.59;2175337;82;21240;-81
2020/12/22 13:23:49;;;;;;;50.03;30.90;;;;;;;3.93;72.63;98664.88;2175462;82;21109;-80
2020/12/22 13:26:51;;;;;;;51.27;30.20;;;;;;;3.92;72.81;98656.66;2175048;81;21241;-81
2020/12/22 13:29:52;;;;;;;52.20;31.90;;;;;;;3.92;73.09;98656.25;2176210;82;21090;-80
2020/12/22 13:32:53;;;;;;;58.10;32.43;;;;;;;3.91;73.25;98650.61;2175779;82;21250;-79
2020/12/22 13:35:54;;;;;;;58.67;32.73;;;;;;;3.94;73.68;98648.55;2176951;82;21181;-80
2020/12/22 13:38:55;;;;;;;57.73;34.23;;;;;;;3.94;73.80;98636.94;2176355;82;21500;-80
2020/12/22 13:41:56;;;;;;;71.83;41.17;;;;;;;3.95;73.97;98645.14;2176438;82;21138;-80
2020/12/22 13:44:57;;;;;;;60.13;37.47;;;;;;;3.96;74.24;98643.03;2176348;82;21211;-79
2020/12/22 13:47:58;;;;;;;59.47;35.33;;;;;;;3.94;74.52;98643.39;2176486;82;21122;-79
2020/12/22 13:51:00;;;;;;;58.13;35.73;;;;;;;3.95;75.79;98645.14;2175897;81;21682;-80
2020/12/22 13:54:01;;;;;;;65.70;36.40;;;;;;;3.95;75.10;98642.56;2176374;82;21154;-80
2020/12/22 13:57:02;;;;;;;62.37;36.30;;;;;;;3.94;75.06;98649.43;2176465;82;21122;-80